createdAt,value
2023-01-01T00:01:23.361Z,31.92
2023-01-01T00:03:56.884Z,25.15
2023-01-01T00:06:23.456Z,22.60
2023-01-01T00:09:10.284Z,22.73
2023-01-01T00:11:36.885Z,21.20
2023-01-01T00:14:10.093Z,17.10
2023-01-01T00:16:38.857Z,17.35
2023-01-01T00:19:05.419Z,14.80
2023-01-01T00:21:31.953Z,13.82
2023-01-01T00:23:58.399Z,13.40
2023-01-01T00:26:28.211Z,12.43
2023-01-01T00:28:59.695Z,10.32
2023-01-01T00:31:26.142Z,10.45
2023-01-01T00:33:53.728Z,9.10
2023-01-01T00:36:21.254Z,12.68
2023-01-01T00:38:47.779Z,11.07
2023-01-01T00:41:15.011Z,8.50
2023-01-01T00:43:42.028Z,7.38
2023-01-01T00:46:08.742Z,6.82
2023-01-01T00:48:35.334Z,6.85
2023-01-01T00:51:02.251Z,6.00
2023-01-01T00:53:28.691Z,5.15
2023-01-01T00:55:56.325Z,5.55
2023-01-01T00:58:23.393Z,5.95
2023-01-01T01:00:50.086Z,5.20
2023-01-01T01:03:29.000Z,5.03
2023-01-01T01:05:55.676Z,6.90
2023-01-01T01:08:28.560Z,8.82
2023-01-01T01:11:04.400Z,5.85
2023-01-01T01:13:30.871Z,4.68
2023-01-01T01:15:57.315Z,4.07
2023-01-01T01:18:23.816Z,3.60
2023-01-01T01:20:51.789Z,4.30
2023-01-01T01:23:18.713Z,3.95
2023-01-01T01:25:45.673Z,3.35
2023-01-01T01:28:12.182Z,3.80
2023-01-01T01:30:39.265Z,3.35
2023-01-01T01:33:05.741Z,3.80
2023-01-01T01:35:33.115Z,5.53
2023-01-01T01:37:59.596Z,3.70
2023-01-01T01:40:26.125Z,3.33
2023-01-01T01:42:52.627Z,3.97
2023-01-01T01:45:19.479Z,3.03
2023-01-01T01:47:50.788Z,3.45
2023-01-01T01:50:23.488Z,3.47
2023-01-01T01:53:10.170Z,2.75
2023-01-01T01:55:40.108Z,2.70
2023-01-01T01:58:07.646Z,2.95
2023-01-01T02:00:34.110Z,2.90
2023-01-01T02:03:05.532Z,3.00
2023-01-01T02:05:32.797Z,2.40
2023-01-01T02:07:59.792Z,2.65
2023-01-01T02:10:26.888Z,2.67
2023-01-01T02:12:53.660Z,2.20
2023-01-01T02:15:21.345Z,2.30
2023-01-01T02:18:06.649Z,1.95
2023-01-01T02:20:37.379Z,2.22
2023-01-01T02:23:04.629Z,2.50
2023-01-01T02:25:34.193Z,2.00
2023-01-01T02:28:24.439Z,3.33
2023-01-01T02:30:51.091Z,3.45
2023-01-01T02:33:20.101Z,4.40
2023-01-01T02:35:50.949Z,3.47
2023-01-01T02:38:17.330Z,2.75
2023-01-01T02:40:51.638Z,2.35
2023-01-01T02:43:24.437Z,2.47
2023-01-01T02:45:51.716Z,2.40
2023-01-01T02:48:37.219Z,1.67
2023-01-01T02:51:04.981Z,1.50
2023-01-01T02:53:33.643Z,1.75
2023-01-01T02:56:03.294Z,1.88
2023-01-01T02:59:00.124Z,1.83
2023-01-01T03:01:56.140Z,1.90
2023-01-01T03:04:31.677Z,1.50
2023-01-01T03:06:58.144Z,1.63
2023-01-01T03:09:31.119Z,1.52
2023-01-01T03:12:02.212Z,1.70
2023-01-01T03:14:50.700Z,1.60
2023-01-01T03:17:26.704Z,1.63
2023-01-01T03:19:53.764Z,1.40
2023-01-01T03:22:21.616Z,1.67
2023-01-01T03:24:58.025Z,1.90
2023-01-01T03:27:30.668Z,1.67
2023-01-01T03:29:59.522Z,1.85
2023-01-01T03:32:54.036Z,1.85
2023-01-01T03:35:21.780Z,1.20
2023-01-01T03:37:50.085Z,1.52
2023-01-01T03:40:18.198Z,1.70
2023-01-01T03:42:48.213Z,1.85
2023-01-01T03:45:20.947Z,1.80
2023-01-01T03:47:47.883Z,1.65
2023-01-01T03:50:14.783Z,1.65
2023-01-01T03:53:00.038Z,1.70
2023-01-01T03:55:33.002Z,1.65
2023-01-01T03:57:59.386Z,1.83
2023-01-01T04:00:28.871Z,1.63
2023-01-01T04:03:16.532Z,1.30
2023-01-01T04:05:43.444Z,1.83
2023-01-01T04:08:10.443Z,1.60
2023-01-01T04:10:38.191Z,1.98
2023-01-01T04:13:05.797Z,1.55
2023-01-01T04:15:32.965Z,2.08
2023-01-01T04:17:59.571Z,1.52
2023-01-01T04:20:26.594Z,1.75
2023-01-01T04:22:56.808Z,1.73
2023-01-01T04:25:23.243Z,1.95
2023-01-01T04:27:49.685Z,1.92
2023-01-01T04:30:16.474Z,2.03
2023-01-01T04:32:43.254Z,1.77
2023-01-01T04:35:12.707Z,1.80
2023-01-01T04:37:40.390Z,1.70
2023-01-01T04:40:07.723Z,1.52
2023-01-01T04:42:34.322Z,1.90
2023-01-01T04:45:01.040Z,1.92
2023-01-01T04:47:27.518Z,1.60
2023-01-01T04:49:54.138Z,1.60
2023-01-01T04:52:20.828Z,1.90
2023-01-01T04:54:47.243Z,1.52
2023-01-01T04:57:13.876Z,1.70
2023-01-01T04:59:40.969Z,1.70
2023-01-01T05:02:07.863Z,1.70
2023-01-01T05:04:34.424Z,1.80
2023-01-01T05:07:00.846Z,1.73
2023-01-01T05:09:27.519Z,1.92
2023-01-01T05:11:55.247Z,1.75
2023-01-01T05:14:21.682Z,1.90
2023-01-01T05:16:48.161Z,1.70
2023-01-01T05:19:14.545Z,1.80
2023-01-01T05:21:41.021Z,1.90
2023-01-01T05:24:08.461Z,1.52
2023-01-01T05:26:36.640Z,1.63
2023-01-01T05:29:03.665Z,1.92
2023-01-01T05:31:31.922Z,1.80
2023-01-01T05:36:28.837Z,1.80
2023-01-01T05:38:55.803Z,1.70
2023-01-01T05:41:22.822Z,1.83
2023-01-01T05:43:50.168Z,1.60
2023-01-01T05:46:18.461Z,1.90
2023-01-01T05:48:45.197Z,1.67
2023-01-01T05:51:16.137Z,1.67
2023-01-01T05:53:44.423Z,1.90
2023-01-01T05:56:11.433Z,1.80
2023-01-01T05:58:38.103Z,1.77
2023-01-01T06:01:13.097Z,2.00
2023-01-01T06:03:40.023Z,1.75
2023-01-01T06:06:13.808Z,1.77
2023-01-01T06:08:40.763Z,1.95
2023-01-01T06:11:08.182Z,2.00
2023-01-01T06:13:35.061Z,2.10
2023-01-01T06:16:02.170Z,2.08
2023-01-01T06:18:33.213Z,1.80
2023-01-01T06:21:09.851Z,1.55
2023-01-01T06:23:36.488Z,1.95
2023-01-01T06:26:06.234Z,1.50
2023-01-01T06:28:32.829Z,1.73
2023-01-01T06:31:00.338Z,1.65
2023-01-01T06:33:26.893Z,1.80
2023-01-01T06:35:53.349Z,1.60
2023-01-01T06:38:19.859Z,2.00
2023-01-01T06:40:55.221Z,1.83
2023-01-01T06:43:21.824Z,2.10
2023-01-01T06:45:48.310Z,1.98
2023-01-01T06:48:14.767Z,2.10
2023-01-01T06:50:41.762Z,2.35
2023-01-01T06:53:08.175Z,2.17
2023-01-01T06:55:35.709Z,1.77
2023-01-01T06:58:02.103Z,1.98
2023-01-01T07:00:28.974Z,1.80
2023-01-01T07:02:55.516Z,2.60
2023-01-01T07:05:22.099Z,1.40
2023-01-01T07:07:48.493Z,1.75
2023-01-01T07:10:14.968Z,2.13
2023-01-01T07:12:41.353Z,1.73
2023-01-01T07:15:08.222Z,2.38
2023-01-01T07:17:34.666Z,1.80
2023-01-01T07:20:01.085Z,2.30
2023-01-01T07:22:27.468Z,1.90
2023-01-01T07:24:53.947Z,2.10
2023-01-01T07:27:20.347Z,1.83
2023-01-01T07:29:46.746Z,1.70
2023-01-01T07:32:14.001Z,2.00
2023-01-01T07:34:40.441Z,1.75
2023-01-01T07:37:06.990Z,2.10
2023-01-01T07:39:33.367Z,1.90
2023-01-01T07:42:04.896Z,2.35
2023-01-01T07:44:34.041Z,1.77
2023-01-01T07:47:04.270Z,2.50
2023-01-01T07:49:30.886Z,2.28
2023-01-01T07:51:57.426Z,1.98
2023-01-01T07:54:23.843Z,2.08
2023-01-01T07:56:50.233Z,1.80
2023-01-01T07:59:20.503Z,2.05
2023-01-01T08:01:47.334Z,1.95
2023-01-01T08:04:13.861Z,2.38
2023-01-01T08:06:40.480Z,1.98
2023-01-01T08:09:06.906Z,1.95
2023-01-01T08:11:33.549Z,1.90
2023-01-01T08:14:00.691Z,2.28
2023-01-01T08:16:27.160Z,2.38
2023-01-01T08:18:53.618Z,2.03
2023-01-01T08:21:20.120Z,1.88
2023-01-01T08:23:46.526Z,1.73
2023-01-01T08:26:14.367Z,2.00
2023-01-01T08:28:40.789Z,2.42
2023-01-01T08:31:07.251Z,2.75
2023-01-01T08:33:42.860Z,2.10
2023-01-01T08:36:14.367Z,2.08
2023-01-01T08:38:40.783Z,2.08
2023-01-01T08:41:07.185Z,2.30
2023-01-01T08:43:33.608Z,2.13
2023-01-01T08:46:00.097Z,2.20
2023-01-01T08:48:30.764Z,2.22
2023-01-01T08:51:03.123Z,2.20
2023-01-01T08:53:30.482Z,2.03
2023-01-01T08:56:01.351Z,2.22
2023-01-01T08:58:28.161Z,2.38
2023-01-01T09:00:54.657Z,2.22
2023-01-01T09:03:21.170Z,1.95
2023-01-01T09:05:47.810Z,2.08
2023-01-01T09:08:17.907Z,2.33
2023-01-01T09:10:44.334Z,1.85
2023-01-01T09:13:11.747Z,2.25
2023-01-01T09:15:38.417Z,2.00
2023-01-01T09:18:05.128Z,2.05
2023-01-01T09:20:31.609Z,1.90
2023-01-01T09:23:02.575Z,2.25
2023-01-01T09:25:32.649Z,2.40
2023-01-01T09:28:02.929Z,2.15
2023-01-01T09:30:29.731Z,1.98
2023-01-01T09:32:56.130Z,2.15
2023-01-01T09:35:22.735Z,2.15
2023-01-01T09:37:49.165Z,1.88
2023-01-01T09:40:18.693Z,2.08
2023-01-01T09:42:55.095Z,1.98
2023-01-01T09:45:29.104Z,1.92
2023-01-01T09:47:57.885Z,2.30
2023-01-01T09:50:28.009Z,2.20
2023-01-01T09:53:04.177Z,1.80
2023-01-01T09:55:37.798Z,2.20
2023-01-01T09:58:04.283Z,2.38
2023-01-01T10:00:33.271Z,2.08
2023-01-01T10:03:25.558Z,2.25
2023-01-01T10:05:55.538Z,2.00
2023-01-01T10:08:40.274Z,1.85
2023-01-01T10:11:13.959Z,2.20
2023-01-01T10:13:45.155Z,1.98
2023-01-01T10:16:19.241Z,2.28
2023-01-01T10:18:51.753Z,2.10
2023-01-01T10:21:21.901Z,2.42
2023-01-01T10:23:55.869Z,2.15
2023-01-01T10:26:24.672Z,2.13
2023-01-01T10:29:09.529Z,1.95
2023-01-01T10:31:41.324Z,2.15
2023-01-01T10:34:19.970Z,1.80
2023-01-01T10:36:46.710Z,1.98
2023-01-01T10:39:15.185Z,1.75
2023-01-01T10:41:42.116Z,2.33
2023-01-01T10:44:09.631Z,2.08
2023-01-01T10:46:37.346Z,2.22
2023-01-01T10:49:07.431Z,2.08
2023-01-01T10:51:36.647Z,1.88
2023-01-01T10:54:03.145Z,2.03
2023-01-01T10:56:39.510Z,2.40
2023-01-01T10:59:26.067Z,1.92
2023-01-01T11:02:07.922Z,2.08
2023-01-01T11:04:34.755Z,2.50
2023-01-01T11:07:06.231Z,2.30
2023-01-01T11:09:32.782Z,2.10
2023-01-01T11:12:05.581Z,2.25
2023-01-01T11:14:38.010Z,2.20
2023-01-01T11:17:04.768Z,2.08
2023-01-01T11:19:36.770Z,2.17
2023-01-01T11:22:04.144Z,2.15
2023-01-01T11:24:31.458Z,2.42
2023-01-01T11:27:13.173Z,2.28
2023-01-01T11:29:39.619Z,2.42
2023-01-01T11:32:07.002Z,2.85
2023-01-01T11:34:33.482Z,1.95
2023-01-01T11:37:19.036Z,2.40
2023-01-01T11:39:47.063Z,2.15
2023-01-01T11:42:18.289Z,2.70
2023-01-01T11:44:46.726Z,2.60
2023-01-01T11:47:22.050Z,2.50
2023-01-01T11:49:53.809Z,2.70
2023-01-01T11:52:28.696Z,2.60
2023-01-01T11:55:01.289Z,2.25
2023-01-01T11:57:27.968Z,2.50
2023-01-01T12:00:00.785Z,2.28
2023-01-01T12:02:34.331Z,2.28
2023-01-01T12:05:15.984Z,2.05
2023-01-01T12:07:44.049Z,2.00
2023-01-01T12:10:28.918Z,2.20
2023-01-01T12:13:06.428Z,2.63
2023-01-01T12:15:34.329Z,1.83
2023-01-01T12:18:18.850Z,2.20
2023-01-01T12:20:50.615Z,2.42
2023-01-01T12:23:18.367Z,2.60
2023-01-01T12:25:46.366Z,2.72
2023-01-01T12:28:20.272Z,2.38
2023-01-01T12:31:05.695Z,2.30
2023-01-01T12:33:48.836Z,2.13
2023-01-01T12:36:20.535Z,2.38
2023-01-01T12:38:47.010Z,2.45
2023-01-01T12:41:13.537Z,1.77
2023-01-01T12:43:39.933Z,2.65
2023-01-01T12:46:12.728Z,2.00
2023-01-01T12:48:48.984Z,2.28
2023-01-01T12:51:25.868Z,2.33
2023-01-01T12:53:52.362Z,2.08
2023-01-01T12:56:23.074Z,2.53
2023-01-01T12:59:02.113Z,2.47
2023-01-01T13:01:33.351Z,2.33
2023-01-01T13:04:02.546Z,2.38
2023-01-01T13:06:50.397Z,2.00
2023-01-01T13:09:18.797Z,2.20
2023-01-01T13:11:50.866Z,1.98
2023-01-01T13:14:17.360Z,2.45
2023-01-01T13:16:53.978Z,2.45
2023-01-01T13:19:30.809Z,2.20
2023-01-01T13:21:57.273Z,2.28
2023-01-01T13:24:24.851Z,2.58
2023-01-01T13:26:51.708Z,2.00
2023-01-01T13:29:18.079Z,2.20
2023-01-01T13:31:44.575Z,2.42
2023-01-01T13:34:29.933Z,2.55
2023-01-01T13:37:13.777Z,2.55
2023-01-01T13:40:04.415Z,2.58
2023-01-01T13:42:43.337Z,2.40
2023-01-01T13:45:36.583Z,3.22
2023-01-01T13:48:02.468Z,3.63
2023-01-01T13:50:46.983Z,3.10
2023-01-01T13:53:26.181Z,3.58
2023-01-01T13:55:55.651Z,5.20
2023-01-01T13:58:42.727Z,3.35
2023-01-01T14:01:24.473Z,7.80
2023-01-01T14:03:53.024Z,3.30
2023-01-01T14:06:22.499Z,3.75
2023-01-01T14:09:00.684Z,3.53
2023-01-01T14:11:28.272Z,5.13
2023-01-01T14:13:54.695Z,4.30
2023-01-01T14:16:21.270Z,5.80
2023-01-01T14:18:49.299Z,5.15
2023-01-01T14:21:20.140Z,6.45
2023-01-01T14:23:48.524Z,9.63
2023-01-01T14:26:17.802Z,4.70
2023-01-01T14:28:44.532Z,4.93
2023-01-01T14:31:16.918Z,4.85
2023-01-01T14:33:43.657Z,3.67
2023-01-01T14:36:27.559Z,4.30
2023-01-01T14:38:55.203Z,4.43
2023-01-01T14:41:29.274Z,3.05
2023-01-01T14:44:07.956Z,4.00
2023-01-01T14:46:39.613Z,3.33
2023-01-01T14:49:09.310Z,3.92
2023-01-01T14:51:42.513Z,3.20
2023-01-01T14:54:15.629Z,3.03
2023-01-01T14:56:42.162Z,3.60
2023-01-01T14:59:13.453Z,2.90
2023-01-01T15:01:41.658Z,3.10
2023-01-01T15:04:24.259Z,3.40
2023-01-01T15:06:57.435Z,3.17
2023-01-01T15:09:24.116Z,2.90
2023-01-01T15:11:54.316Z,2.78
2023-01-01T15:14:37.486Z,2.90
2023-01-01T15:17:11.117Z,2.53
2023-01-01T15:19:43.900Z,2.20
2023-01-01T15:22:11.336Z,2.40
2023-01-01T15:24:38.123Z,2.53
2023-01-01T15:27:06.598Z,2.97
2023-01-01T15:29:35.365Z,2.70
2023-01-01T15:32:05.084Z,2.72
2023-01-01T15:34:33.385Z,2.08
2023-01-01T15:37:19.775Z,2.50
2023-01-01T15:39:47.588Z,2.67
2023-01-01T15:42:35.598Z,2.47
2023-01-01T15:45:13.996Z,2.63
2023-01-01T15:47:40.445Z,2.75
2023-01-01T15:50:11.500Z,2.60
2023-01-01T15:52:38.491Z,2.65
2023-01-01T15:55:05.239Z,2.78
2023-01-01T15:57:31.708Z,3.10
2023-01-01T15:59:58.216Z,2.50
2023-01-01T16:02:32.256Z,4.28
2023-01-01T16:04:59.165Z,3.63
2023-01-01T16:07:26.387Z,2.92
2023-01-01T16:09:57.835Z,2.30
2023-01-01T16:12:25.092Z,2.08
2023-01-01T16:14:51.614Z,1.80
2023-01-01T16:17:20.070Z,1.85
2023-01-01T16:19:47.221Z,2.03
2023-01-01T16:22:15.630Z,1.92
2023-01-01T16:24:43.147Z,2.50
2023-01-01T16:27:09.733Z,2.13
2023-01-01T16:29:36.287Z,2.00
2023-01-01T16:32:03.021Z,2.20
2023-01-01T16:34:29.513Z,3.63
2023-01-01T16:36:55.993Z,3.15
2023-01-01T16:39:23.109Z,2.60
2023-01-01T16:41:49.531Z,2.30
2023-01-01T16:44:16.113Z,2.95
2023-01-01T16:46:42.879Z,3.78
2023-01-01T16:49:09.385Z,4.28
2023-01-01T16:51:36.978Z,3.75
2023-01-01T16:54:04.970Z,4.47
2023-01-01T16:56:31.395Z,7.47
2023-01-01T16:59:03.264Z,37.13
2023-01-01T17:01:30.537Z,48.63
2023-01-01T17:03:57.447Z,24.77
2023-01-01T17:06:23.903Z,17.30
2023-01-01T17:08:50.346Z,18.38
2023-01-01T17:11:18.190Z,12.80
2023-01-01T17:13:45.779Z,12.18
2023-01-01T17:16:19.388Z,22.92
2023-01-01T17:21:36.750Z,8.77
2023-01-01T17:24:03.242Z,11.35
2023-01-01T17:26:29.720Z,6.00
2023-01-01T17:29:00.575Z,5.78
2023-01-01T17:31:29.254Z,8.55
2023-01-01T17:33:56.532Z,7.90
2023-01-01T17:36:23.276Z,7.72
2023-01-01T17:38:49.756Z,10.82
2023-01-01T17:41:16.722Z,8.55
2023-01-01T17:43:44.266Z,8.40
2023-01-01T17:46:13.869Z,6.68
2023-01-01T17:48:40.561Z,8.32
2023-01-01T17:51:07.210Z,11.60
2023-01-01T17:53:33.766Z,9.88
2023-01-01T17:56:00.230Z,9.43
2023-01-01T17:58:30.762Z,9.65
2023-01-01T18:01:12.594Z,10.00
2023-01-01T18:03:40.468Z,11.07
2023-01-01T18:06:08.647Z,11.95
2023-01-01T18:08:35.183Z,12.75
2023-01-01T18:11:01.654Z,12.55
2023-01-01T18:13:28.150Z,11.73
2023-01-01T18:15:59.126Z,15.20
2023-01-01T18:18:25.624Z,22.00
2023-01-01T18:20:52.042Z,15.45
2023-01-01T18:23:18.476Z,17.75
2023-01-01T18:25:44.934Z,15.35
2023-01-01T18:28:11.398Z,20.55
2023-01-01T18:30:37.959Z,18.58
2023-01-01T18:33:04.446Z,17.02
2023-01-01T18:35:30.917Z,17.02
2023-01-01T18:37:57.375Z,14.48
2023-01-01T18:40:24.069Z,16.83
2023-01-01T18:43:04.446Z,12.52
2023-01-01T18:45:31.105Z,13.75
2023-01-01T18:47:57.617Z,13.57
2023-01-01T18:50:26.751Z,16.45
2023-01-01T18:52:54.526Z,12.75
2023-01-01T18:55:26.816Z,13.60
2023-01-01T18:58:01.852Z,18.05
2023-01-01T19:00:30.990Z,16.38
2023-01-01T19:03:01.650Z,16.73
2023-01-01T19:05:32.730Z,16.63
2023-01-01T19:07:59.131Z,18.33
2023-01-01T19:10:26.768Z,17.00
2023-01-01T19:12:54.966Z,21.60
2023-01-01T19:15:21.677Z,15.23
2023-01-01T19:17:48.204Z,15.73
2023-01-01T19:20:18.905Z,20.95
2023-01-01T19:22:45.777Z,15.15
2023-01-01T19:25:32.128Z,15.95
2023-01-01T19:28:11.794Z,16.65
2023-01-01T19:30:38.239Z,16.13
2023-01-01T19:33:04.628Z,17.17
2023-01-01T19:35:31.013Z,17.65
2023-01-01T19:37:57.444Z,16.00
2023-01-01T19:40:23.965Z,18.05
2023-01-01T19:42:50.602Z,20.80
2023-01-01T19:45:17.056Z,18.65
2023-01-01T19:47:44.199Z,18.10
2023-01-01T19:50:11.718Z,17.70
2023-01-01T19:52:38.714Z,16.98
2023-01-01T19:55:05.880Z,18.05
2023-01-01T19:57:32.340Z,17.20
2023-01-01T20:00:01.058Z,18.02
2023-01-01T20:02:45.542Z,16.55
2023-01-01T20:05:14.558Z,13.65
2023-01-01T20:07:41.037Z,18.23
2023-01-01T20:10:07.671Z,16.58
2023-01-01T20:12:34.093Z,19.63
2023-01-01T20:15:00.613Z,16.02
2023-01-01T20:17:27.227Z,17.48
2023-01-01T20:19:54.766Z,15.18
2023-01-01T20:22:22.217Z,22.75
2023-01-01T20:24:48.663Z,14.90
2023-01-01T20:27:17.695Z,16.33
2023-01-01T20:29:44.524Z,16.17
2023-01-01T20:32:12.909Z,15.82
2023-01-01T20:34:40.409Z,15.32
2023-01-01T20:37:25.569Z,15.48
2023-01-01T20:39:52.346Z,14.32
2023-01-01T20:42:18.863Z,14.43
2023-01-01T20:44:45.726Z,16.63
2023-01-01T20:47:13.038Z,13.82
2023-01-01T20:49:40.598Z,16.88
2023-01-01T20:52:07.083Z,16.58
2023-01-01T20:54:33.509Z,13.70
2023-01-01T20:57:00.032Z,19.58
2023-01-01T20:59:36.325Z,16.02
2023-01-01T21:02:06.886Z,13.10
2023-01-01T21:04:38.098Z,13.82
2023-01-01T21:07:08.719Z,14.45
2023-01-01T21:09:35.235Z,15.55
2023-01-01T21:12:02.037Z,14.88
2023-01-01T21:14:28.780Z,14.05
2023-01-01T21:16:56.458Z,15.38
2023-01-01T21:19:26.951Z,14.27
2023-01-01T21:21:55.799Z,13.85
2023-01-01T21:24:26.827Z,13.75
2023-01-01T21:27:00.614Z,15.68
2023-01-01T21:29:30.955Z,13.27
2023-01-01T21:32:05.261Z,13.98
2023-01-01T21:34:41.947Z,14.55
2023-01-01T21:37:11.482Z,13.55
2023-01-01T21:39:37.931Z,12.52
2023-01-01T21:42:23.891Z,16.45
2023-01-01T21:44:55.514Z,12.98
2023-01-01T21:47:23.284Z,12.55
2023-01-01T21:49:52.418Z,12.25
2023-01-01T21:52:20.926Z,12.68
2023-01-01T21:54:50.286Z,12.98
2023-01-01T21:57:22.645Z,12.57
2023-01-01T21:59:49.784Z,12.32
2023-01-01T22:02:28.842Z,10.90
2023-01-01T22:04:55.529Z,13.05
2023-01-01T22:10:16.514Z,9.75
2023-01-01T22:12:43.097Z,9.48
2023-01-01T22:15:27.801Z,9.73
2023-01-01T22:18:09.595Z,9.43
2023-01-01T22:20:38.191Z,9.60
2023-01-01T22:23:24.666Z,8.88
2023-01-01T22:25:51.661Z,8.98
2023-01-01T22:28:25.408Z,9.55
2023-01-01T22:30:58.717Z,9.48
2023-01-01T22:33:36.318Z,9.98
2023-01-01T22:36:03.070Z,8.38
2023-01-01T22:38:32.085Z,9.98
2023-01-01T22:40:58.785Z,8.68
2023-01-01T22:43:32.401Z,8.55
2023-01-01T22:46:03.291Z,7.10
2023-01-01T22:48:33.943Z,7.65
2023-01-01T22:51:12.750Z,7.45
2023-01-01T22:53:39.209Z,8.07
2023-01-01T22:56:05.717Z,7.95
2023-01-01T22:58:32.215Z,9.02
2023-01-01T23:00:59.929Z,7.50
2023-01-01T23:03:26.719Z,7.28
2023-01-01T23:05:54.233Z,7.15
2023-01-01T23:08:20.830Z,8.07
2023-01-01T23:10:47.667Z,6.93
2023-01-01T23:13:32.914Z,6.75
2023-01-01T23:16:02.590Z,7.85
2023-01-01T23:18:30.451Z,6.78
2023-01-01T23:20:57.453Z,6.90
2023-01-01T23:23:24.453Z,6.70
2023-01-01T23:25:51.089Z,5.95
2023-01-01T23:28:17.944Z,6.68
2023-01-01T23:30:44.643Z,7.47
2023-01-01T23:33:13.987Z,6.45
2023-01-01T23:35:40.539Z,5.88
2023-01-01T23:38:07.327Z,5.80
2023-01-01T23:40:33.790Z,5.72
2023-01-01T23:43:00.390Z,6.72
2023-01-01T23:45:29.411Z,5.97
2023-01-01T23:47:56.249Z,5.70
2023-01-01T23:50:23.189Z,5.75
2023-01-01T23:52:49.638Z,6.20
2023-01-01T23:55:16.136Z,5.18
2023-01-01T23:57:42.510Z,5.55
